createdAt,value
2023-04-01T00:04:51.971Z,6.68
2023-04-01T00:07:55.883Z,6.72
2023-04-01T00:10:59.275Z,6.74
2023-04-01T00:14:03.656Z,6.75
2023-04-01T00:17:07.316Z,6.75
2023-04-01T00:20:12.529Z,6.76
2023-04-01T00:23:17.003Z,6.77
2023-04-01T00:26:22.653Z,6.77
2023-04-01T00:29:30.328Z,6.78
2023-04-01T00:32:33.668Z,6.79
2023-04-01T00:35:37.030Z,6.79
2023-04-01T00:38:40.850Z,6.78
2023-04-01T00:41:44.464Z,6.76
2023-04-01T00:44:56.150Z,6.75
2023-04-01T00:48:07.535Z,6.74
2023-04-01T00:51:17.177Z,6.73
2023-04-01T00:54:22.930Z,6.72
2023-04-01T00:57:33.287Z,6.73
2023-04-01T01:00:38.064Z,6.72
2023-04-01T01:03:42.153Z,6.71
2023-04-01T01:06:56.505Z,6.72
2023-04-01T01:10:20.902Z,6.72
2023-04-01T01:13:36.477Z,6.72
2023-04-01T01:16:46.350Z,6.71
2023-04-01T01:20:26.971Z,6.70
2023-04-01T01:24:06.760Z,6.70
2023-04-01T01:27:14.920Z,6.68
2023-04-01T01:30:37.627Z,6.67
2023-04-01T01:34:04.056Z,6.67
2023-04-01T01:37:14.614Z,6.67
2023-04-01T01:40:19.096Z,6.67
2023-04-01T01:43:26.913Z,6.68
2023-04-01T01:46:32.281Z,6.68
2023-04-01T01:49:38.140Z,6.68
2023-04-01T01:52:41.449Z,6.67
2023-04-01T01:55:47.895Z,6.66
2023-04-01T01:58:56.028Z,6.64
2023-04-01T02:04:54.224Z,6.59
2023-04-01T02:08:13.658Z,6.62
2023-04-01T02:11:22.733Z,6.60
2023-04-01T02:14:44.862Z,6.59
2023-04-01T02:17:49.854Z,6.59
2023-04-01T02:20:54.833Z,6.58
2023-04-01T02:24:02.228Z,6.59
2023-04-01T02:27:11.564Z,6.58
2023-04-01T02:30:18.552Z,6.58
2023-04-01T02:33:22.151Z,6.57
2023-04-01T02:36:27.436Z,6.56
2023-04-01T02:39:32.124Z,6.55
2023-04-01T02:42:35.828Z,6.54
2023-04-01T02:45:39.333Z,6.54
2023-04-01T02:48:43.712Z,6.53
2023-04-01T02:51:46.908Z,6.51
2023-04-01T02:54:50.289Z,6.50
2023-04-01T02:57:56.112Z,6.48
2023-04-01T03:00:59.634Z,6.46
2023-04-01T03:04:04.038Z,6.46
2023-04-01T03:07:08.153Z,6.46
2023-04-01T03:10:11.961Z,6.46
2023-04-01T03:13:16.023Z,6.47
2023-04-01T03:16:20.563Z,6.46
2023-04-01T03:19:24.127Z,6.43
2023-04-01T03:22:27.393Z,6.43
2023-04-01T03:25:32.239Z,6.42
2023-04-01T03:28:36.653Z,6.39
2023-04-01T03:31:39.961Z,6.35
2023-04-01T03:34:43.352Z,6.33
2023-04-01T03:37:46.752Z,6.32
2023-04-01T03:40:51.581Z,6.32
2023-04-01T03:43:55.290Z,6.33
2023-04-01T03:46:58.481Z,6.34
2023-04-01T03:50:02.903Z,6.33
2023-04-01T03:53:07.224Z,6.33
2023-04-01T03:56:11.777Z,6.33
2023-04-01T03:59:16.395Z,6.32
2023-04-01T04:04:53.278Z,6.29
2023-04-01T04:07:56.983Z,6.29
2023-04-01T04:11:00.998Z,6.30
2023-04-01T04:14:04.417Z,6.30
2023-04-01T04:17:09.438Z,6.31
2023-04-01T04:20:13.245Z,6.31
2023-04-01T04:23:17.369Z,6.32
2023-04-01T04:26:20.982Z,6.34
2023-04-01T04:29:31.234Z,6.38
2023-04-01T04:32:35.255Z,6.41
2023-04-01T04:35:39.361Z,6.42
2023-04-01T04:38:47.774Z,6.44
2023-04-01T04:41:51.786Z,6.48
2023-04-01T04:44:56.132Z,6.52
2023-04-01T04:48:00.079Z,6.58
2023-04-01T04:51:04.582Z,6.62
2023-04-01T04:54:08.968Z,6.63
2023-04-01T04:57:33.291Z,6.62
2023-04-01T05:00:37.270Z,6.65
2023-04-01T05:03:49.285Z,6.68
2023-04-01T05:06:53.088Z,6.71
2023-04-01T05:09:56.684Z,6.76
2023-04-01T05:13:01.130Z,6.84
2023-04-01T05:16:10.436Z,6.91
2023-04-01T05:19:17.543Z,7.01
2023-04-01T05:22:21.226Z,7.10
2023-04-01T05:25:27.241Z,7.15
2023-04-01T05:28:31.312Z,7.16
2023-04-01T05:31:34.531Z,7.13
2023-04-01T05:34:38.573Z,7.11
2023-04-01T05:37:41.732Z,7.18
2023-04-01T05:40:45.035Z,7.23
2023-04-01T05:43:48.265Z,7.22
2023-04-01T05:47:14.882Z,7.28
2023-04-01T05:50:18.719Z,7.27
2023-04-01T05:53:23.396Z,7.26
2023-04-01T05:56:26.707Z,7.25
2023-04-01T05:59:32.386Z,7.24
2023-04-01T06:05:19.143Z,7.32
2023-04-01T06:08:21.368Z,7.37
2023-04-01T06:12:01.314Z,7.33
2023-04-01T06:15:25.070Z,7.33
2023-04-01T06:18:30.827Z,7.37
2023-04-01T06:21:42.339Z,7.44
2023-04-01T06:25:26.434Z,7.58
2023-04-01T06:28:47.219Z,7.82
2023-04-01T06:32:06.394Z,8.02
2023-04-01T06:35:11.499Z,8.18
2023-04-01T06:38:38.781Z,8.30
2023-04-01T06:42:19.220Z,8.40
2023-04-01T06:45:49.343Z,8.46
2023-04-01T06:49:45.044Z,8.59
2023-04-01T06:53:30.065Z,8.80
2023-04-01T06:57:01.172Z,8.97
2023-04-01T07:00:15.182Z,9.12
2023-04-01T07:04:10.567Z,9.31
2023-04-01T07:07:25.434Z,9.59
2023-04-01T07:10:54.283Z,9.78
2023-04-01T07:14:37.988Z,9.96
2023-04-01T07:17:44.403Z,10.10
2023-04-01T07:20:47.739Z,10.20
2023-04-01T07:23:55.333Z,10.31
2023-04-01T07:27:10.820Z,10.48
2023-04-01T07:30:24.247Z,10.57
2023-04-01T07:33:51.246Z,10.60
2023-04-01T07:37:11.691Z,10.64
2023-04-01T07:40:25.562Z,10.70
2023-04-01T07:44:03.163Z,10.76
2023-04-01T07:47:24.369Z,10.82
2023-04-01T07:50:53.066Z,10.92
2023-04-01T07:54:26.976Z,11.10
2023-04-01T07:58:11.749Z,11.16
2023-04-01T08:01:21.388Z,11.10
2023-04-01T08:04:52.995Z,10.99
2023-04-01T08:08:10.593Z,10.83
2023-04-01T08:11:37.219Z,10.76
2023-04-01T08:15:16.566Z,10.81
2023-04-01T08:18:57.776Z,10.82
2023-04-01T08:22:10.480Z,10.82
2023-04-01T08:25:25.641Z,10.85
2023-04-01T08:28:55.964Z,10.92
2023-04-01T08:32:17.175Z,10.93
2023-04-01T08:35:46.242Z,11.02
2023-04-01T08:39:11.288Z,11.22
2023-04-01T08:42:44.595Z,11.44
2023-04-01T08:46:08.655Z,11.58
2023-04-01T08:49:33.990Z,11.71
2023-04-01T08:52:58.178Z,11.85
2023-04-01T08:56:25.497Z,12.08
2023-04-01T08:59:58.834Z,12.24
2023-04-01T09:03:25.558Z,12.39
2023-04-01T09:06:32.587Z,12.47
2023-04-01T09:09:47.227Z,12.58
2023-04-01T09:13:09.792Z,12.69
2023-04-01T09:17:01.024Z,12.76
2023-04-01T09:20:28.205Z,12.84
2023-04-01T09:23:38.420Z,12.93
2023-04-01T09:26:52.880Z,12.99
2023-04-01T09:30:35.419Z,13.00
2023-04-01T09:34:24.371Z,12.99
2023-04-01T09:38:01.087Z,12.98
2023-04-01T09:41:28.404Z,13.03
2023-04-01T09:44:57.812Z,13.26
2023-04-01T09:48:13.364Z,13.44
2023-04-01T09:51:25.145Z,13.68
2023-04-01T09:54:55.760Z,13.89
2023-04-01T09:58:27.070Z,14.00
2023-04-01T10:05:40.084Z,14.30
2023-04-01T10:08:52.356Z,14.60
2023-04-01T10:12:36.938Z,14.77
2023-04-01T10:16:11.501Z,14.98
2023-04-01T10:19:55.718Z,15.08
2023-04-01T10:23:09.332Z,15.01
2023-04-01T10:26:27.680Z,15.05
2023-04-01T10:30:13.678Z,15.34
2023-04-01T10:33:35.715Z,15.54
2023-04-01T10:36:54.413Z,15.55
2023-04-01T10:40:04.534Z,15.67
2023-04-01T10:44:19.414Z,15.67
2023-04-01T10:47:46.192Z,15.80
2023-04-01T10:51:12.083Z,16.03
2023-04-01T10:54:32.982Z,16.22
2023-04-01T10:58:32.314Z,16.37
2023-04-01T11:02:57.758Z,16.45
2023-04-01T11:06:36.650Z,16.53
2023-04-01T11:10:12.320Z,16.51
2023-04-01T11:14:10.199Z,16.28
2023-04-01T11:17:35.903Z,15.96
2023-04-01T11:21:08.588Z,15.97
2023-04-01T11:24:32.587Z,16.04
2023-04-01T11:28:06.692Z,15.90
2023-04-01T11:31:48.592Z,15.54
2023-04-01T11:35:18.720Z,15.43
2023-04-01T11:38:41.889Z,15.33
2023-04-01T11:42:18.457Z,15.33
2023-04-01T11:46:05.315Z,15.46
2023-04-01T11:49:45.640Z,15.50
2023-04-01T11:53:24.065Z,15.51
2023-04-01T11:56:41.830Z,15.55
2023-04-01T11:59:56.054Z,15.38
2023-04-01T12:03:29.598Z,15.28
2023-04-01T12:06:53.240Z,15.33
2023-04-01T12:10:04.310Z,15.32
2023-04-01T12:13:32.085Z,15.28
2023-04-01T12:17:20.435Z,15.23
2023-04-01T12:21:10.237Z,15.18
2023-04-01T12:24:37.075Z,15.19
2023-04-01T12:27:46.307Z,15.10
2023-04-01T12:30:54.541Z,15.02
2023-04-01T12:34:15.870Z,14.98
2023-04-01T12:37:45.148Z,14.93
2023-04-01T12:41:22.131Z,15.05
2023-04-01T12:44:52.256Z,15.22
2023-04-01T12:48:03.476Z,15.34
2023-04-01T12:51:38.791Z,15.34
2023-04-01T12:54:43.824Z,15.28
2023-04-01T12:58:11.297Z,15.31
2023-04-01T13:01:29.065Z,15.22
2023-04-01T13:04:47.247Z,15.08
2023-04-01T13:08:01.121Z,15.05
2023-04-01T13:11:21.312Z,15.04
2023-04-01T13:14:49.490Z,15.00
2023-04-01T13:18:27.282Z,14.95
2023-04-01T13:21:54.047Z,14.93
2023-04-01T13:25:02.768Z,14.94
2023-04-01T13:28:30.126Z,14.90
2023-04-01T13:31:34.976Z,14.88
2023-04-01T13:34:48.617Z,14.84
2023-04-01T13:38:23.814Z,14.76
2023-04-01T13:41:40.988Z,14.67
2023-04-01T13:44:55.747Z,14.61
2023-04-01T13:48:23.402Z,14.60
2023-04-01T13:51:44.112Z,14.55
2023-04-01T13:55:20.107Z,14.52
2023-04-01T13:58:40.257Z,14.48
2023-04-01T14:05:41.902Z,14.19
2023-04-01T14:09:22.899Z,14.05
2023-04-01T14:12:47.433Z,13.91
2023-04-01T14:16:48.406Z,13.84
2023-04-01T14:20:13.938Z,13.80
2023-04-01T14:23:32.182Z,13.79
2023-04-01T14:26:46.282Z,13.77
2023-04-01T14:30:36.176Z,13.78
2023-04-01T14:33:56.980Z,13.76
2023-04-01T14:37:20.259Z,13.70
2023-04-01T14:40:39.208Z,13.67
2023-04-01T14:43:53.085Z,13.63
2023-04-01T14:47:05.132Z,13.56
2023-04-01T14:50:14.410Z,13.44
2023-04-01T14:53:39.414Z,13.34
2023-04-01T14:56:49.627Z,13.21
2023-04-01T15:00:04.975Z,13.12
2023-04-01T15:03:31.391Z,13.06
2023-04-01T15:06:36.731Z,12.95
2023-04-01T15:09:44.762Z,12.83
2023-04-01T15:13:15.780Z,12.73
2023-04-01T15:16:42.734Z,12.66
2023-04-01T15:20:02.816Z,12.59
2023-04-01T15:23:40.428Z,12.52
2023-04-01T15:26:45.690Z,12.46
2023-04-01T15:30:13.756Z,12.40
2023-04-01T15:33:32.530Z,12.28
2023-04-01T15:36:54.150Z,12.17
2023-04-01T15:40:12.281Z,12.06
2023-04-01T15:43:43.324Z,11.95
2023-04-01T15:46:48.236Z,11.85
2023-04-01T15:50:08.049Z,11.78
2023-04-01T15:53:23.324Z,11.73
2023-04-01T15:56:48.643Z,11.64
2023-04-01T16:00:28.197Z,11.60
2023-04-01T16:04:16.527Z,11.50
2023-04-01T16:07:41.166Z,11.42
2023-04-01T16:10:52.191Z,11.34
2023-04-01T16:14:07.175Z,11.22
2023-04-01T16:17:50.774Z,11.14
2023-04-01T16:21:00.977Z,11.02
2023-04-01T16:24:30.893Z,10.92
2023-04-01T16:27:46.790Z,10.85
2023-04-01T16:31:15.176Z,10.78
2023-04-01T16:34:36.596Z,10.73
2023-04-01T16:37:48.697Z,10.70
2023-04-01T16:40:58.800Z,10.65
2023-04-01T16:44:30.852Z,10.60
2023-04-01T16:47:47.436Z,10.56
2023-04-01T16:50:55.343Z,10.54
2023-04-01T16:54:13.279Z,10.53
2023-04-01T16:57:32.079Z,10.51
2023-04-01T17:00:40.060Z,10.49
2023-04-01T17:03:50.015Z,10.46
2023-04-01T17:07:23.325Z,10.43
2023-04-01T17:10:53.617Z,10.39
2023-04-01T17:14:05.270Z,10.36
2023-04-01T17:17:32.202Z,10.33
2023-04-01T17:20:50.716Z,10.30
2023-04-01T17:23:53.278Z,10.28
2023-04-01T17:27:15.041Z,10.26
2023-04-01T17:31:05.166Z,10.25
2023-04-01T17:34:30.058Z,10.25
2023-04-01T17:37:44.301Z,10.25
2023-04-01T17:41:28.653Z,10.23
2023-04-01T17:44:33.289Z,10.20
2023-04-01T17:47:48.574Z,10.20
2023-04-01T17:51:16.632Z,10.19
2023-04-01T17:54:46.865Z,10.17
2023-04-01T17:58:09.317Z,10.15
2023-04-01T18:05:02.289Z,10.05
2023-04-01T18:08:18.910Z,10.04
2023-04-01T18:11:34.487Z,10.01
2023-04-01T18:15:06.566Z,9.99
2023-04-01T18:18:44.977Z,9.95
2023-04-01T18:21:54.526Z,9.91
2023-04-01T18:25:07.057Z,9.88
2023-04-01T18:28:36.516Z,9.85
2023-04-01T18:31:45.731Z,9.83
2023-04-01T18:35:01.790Z,9.81
2023-04-01T18:38:30.924Z,9.80
2023-04-01T18:41:35.818Z,9.81
2023-04-01T18:45:18.944Z,9.80
2023-04-01T18:48:43.082Z,9.77
2023-04-01T18:52:01.534Z,9.76
2023-04-01T18:55:15.664Z,9.74
2023-04-01T18:58:28.347Z,9.72
2023-04-01T19:01:41.046Z,9.69
2023-04-01T19:05:03.620Z,9.66
2023-04-01T19:08:31.883Z,9.64
2023-04-01T19:11:52.002Z,9.61
2023-04-01T19:15:07.338Z,9.58
2023-04-01T19:18:25.928Z,9.56
2023-04-01T19:21:48.064Z,9.54
2023-04-01T19:25:23.750Z,9.53
2023-04-01T19:28:40.447Z,9.52
2023-04-01T19:32:19.363Z,9.49
2023-04-01T19:35:52.121Z,9.46
2023-04-01T19:39:02.620Z,9.45
2023-04-01T19:42:24.252Z,9.45
2023-04-01T19:45:32.810Z,9.46
2023-04-01T19:49:05.776Z,9.45
2023-04-01T19:52:20.826Z,9.46
2023-04-01T19:55:30.378Z,9.46
2023-04-01T19:58:57.014Z,9.45
2023-04-01T20:02:09.234Z,9.46
2023-04-01T20:05:42.516Z,9.44
2023-04-01T20:08:53.908Z,9.44
2023-04-01T20:12:06.826Z,9.43
2023-04-01T20:15:34.537Z,9.44
2023-04-01T20:19:04.212Z,9.43
2023-04-01T20:22:47.249Z,9.42
2023-04-01T20:25:58.626Z,9.42
2023-04-01T20:29:39.810Z,9.42
2023-04-01T20:33:01.812Z,9.38
2023-04-01T20:36:11.625Z,9.37
2023-04-01T20:39:41.826Z,9.37
2023-04-01T20:43:10.196Z,9.34
2023-04-01T20:46:35.836Z,9.33
2023-04-01T20:50:09.135Z,9.31
2023-04-01T20:53:29.644Z,9.29
2023-04-01T20:56:57.461Z,9.28
2023-04-01T21:00:24.062Z,9.26
2023-04-01T21:03:36.035Z,9.25
2023-04-01T21:07:02.402Z,9.22
2023-04-01T21:10:25.753Z,9.19
2023-04-01T21:13:48.713Z,9.18
2023-04-01T21:17:23.644Z,9.16
2023-04-01T21:20:48.663Z,9.16
2023-04-01T21:24:14.620Z,9.16
2023-04-01T21:27:40.406Z,9.16
2023-04-01T21:31:05.250Z,9.15
2023-04-01T21:34:31.249Z,9.16
2023-04-01T21:37:54.508Z,9.17
2023-04-01T21:41:19.061Z,9.17
2023-04-01T21:44:28.197Z,9.18
2023-04-01T21:48:08.376Z,9.18
2023-04-01T21:51:42.897Z,9.19
2023-04-01T21:54:51.996Z,9.20
2023-04-01T21:58:23.479Z,9.20
2023-04-01T22:05:11.766Z,9.17
2023-04-01T22:08:36.793Z,9.18
2023-04-01T22:12:05.590Z,9.18
2023-04-01T22:15:42.055Z,9.17
2023-04-01T22:19:00.290Z,9.16
2023-04-01T22:22:25.196Z,9.15
2023-04-01T22:26:03.321Z,9.14
2023-04-01T22:29:27.223Z,9.13
2023-04-01T22:33:07.042Z,9.12
2023-04-01T22:36:45.684Z,9.12
2023-04-01T22:40:22.676Z,9.08
2023-04-01T22:43:41.658Z,9.07
2023-04-01T22:46:47.929Z,9.06
2023-04-01T22:50:12.197Z,9.05
2023-04-01T22:53:45.703Z,9.04
2023-04-01T22:57:01.266Z,9.03
2023-04-01T23:00:27.128Z,9.04
2023-04-01T23:03:37.570Z,9.04
2023-04-01T23:06:47.843Z,9.02
2023-04-01T23:09:52.976Z,8.98
2023-04-01T23:13:01.563Z,8.94
2023-04-01T23:16:07.575Z,8.91
2023-04-01T23:19:33.581Z,8.90
2023-04-01T23:22:45.814Z,8.91
2023-04-01T23:26:15.513Z,8.91
2023-04-01T23:29:21.816Z,8.90
2023-04-01T23:32:27.496Z,8.86
2023-04-01T23:35:31.325Z,8.85
2023-04-01T23:38:43.259Z,8.83
2023-04-01T23:41:47.247Z,8.83
2023-04-01T23:44:57.016Z,8.82
2023-04-01T23:48:02.364Z,8.81
2023-04-01T23:51:30.952Z,8.80
2023-04-01T23:54:43.334Z,8.80
2023-04-01T23:58:28.005Z,8.80
